X  Sluiten METAR luchtvaart weer gegevens      EHKD De Kooy Airport
Temperatuur
19°C Temperatuur
15°C Dauwpunt
78% Vochtigheid



Wind
20 MPH
32 KM/U
9 M/S
17 KTS



220°
ZW
Huidig weer

Veel verspreide wolken Veel verspreide wolken
Luchtdruk 1008.81 (hPa) - 29.79 (inHg)
Zicht 6 (mijl) - 9.7 (km)
Vliegveld
Vliegveld code EHKD

Locatie : De Kooy Airport
Afstand: 34 (mi)

Metar:
EHKD 161359Z AUTO 22017KT 180V250 9999 SCT014 SCT016 19/15 Q1009 BLU NOSIG

Tijd: 16-07-2024 15:59 CEST